Friday, March 6, 2015, 8:38 PM EST

KNHK, Nas Patuxent River Md

Location: Patuxent River, MD, United States Lat: 38.3
Local Time: 8:38 PM EST ( 1:38 GMT) Lon: -76.4
Time Zone: US/Eastern Elev: 39 ft

Show me the last for .
Show Decoded

2015-03-06 19:52 METAR KNHK 070052Z 00000KT 10SM FEW250 M10/M12 A3046 RMK AO2 SLP315 T11001117 =
2015-03-06 18:52 METAR KNHK 062352Z 00000KT 10SM FEW250 M08/M12 A3047 RMK AO2 SLP319 4/005
                 T10831122 11056 21083 56007 =
2015-03-06 16:52 METAR KNHK 062152Z 05004KT 10SM FEW250 M06/M13 A3047 RMK AO2 SLP319 T10611133 =
2015-03-06 15:52 METAR KNHK 062052Z 06006KT 10SM FEW030 FEW250 M06/M13 A3050 RMK AO2 SLP326
                 T10561133 56019 =
2015-03-06 14:52 METAR KNHK 061952Z 05008KT 10SM FEW030 FEW250 M06/M14 A3051 RMK AO2 SLP332
                 T10611139 =
2015-03-06 13:52 METAR KNHK 061852Z 03009KT 10SM FEW030 M06/M13 A3053 RMK AO2 SLP338 T10561128 =
2015-03-06 12:52 METAR KNHK 061752Z 03010KT 10SM FEW030 M06/M13 A3055 RMK AO2 SLP345 4/006 933007
                 T10561128 11056 21094 58015 =
2015-03-06 12:50 METAR KNHK 061750Z 01009KT 10SM FEW030 M06/M13 A3055 RMK AO2 4/006 933007 =
2015-03-06 11:52 METAR KNHK 061652Z 02011KT 10SM FEW030 M06/M13 A3058 RMK AO2 SLP354 T10611133 =
2015-03-06 10:52 METAR KNHK 061552Z 03013KT 10SM FEW030 M07/M14 A3059 RMK AO2 SLP357 T10671139 =
2015-03-06 09:52 METAR KNHK 061452Z 02014KT 10SM FEW030 M07/M14 A3059 RMK AO2 SLP360 T10721144
                 51015 =
2015-03-06 08:52 METAR KNHK 061352Z 35015KT 10SM FEW028 M07/M14 A3059 RMK AO2 SLP357 T10721144 =
2015-03-06 07:52 METAR KNHK 061252Z 32012KT 10SM SCT028 M09/M15 A3057 RMK AO2 SLP350 T10941150 =
2015-03-06 06:52 METAR KNHK 061152Z 32012KT 10SM FEW027 M09/M16 A3055 RMK AO2 SLP345 70050 4/006
                 T10941156 11061 21094 51027 =
2015-03-06 06:31 METAR KNHK 061131Z 33013KT 10SM FEW027 M09/M15 A3054 RMK AO2 T10941150 =
2015-03-06 05:52 METAR KNHK 061052Z AUTO 33015KT 10SM CLR M09/M16 A3053 RMK AO2 SLP338 T10891156
                 =
2015-03-06 04:52 METAR KNHK 060952Z AUTO 33013KT 10SM CLR M09/M14 A3050 RMK AO2 SLP329 T10891144
                 =
2015-03-06 03:52 METAR KNHK 060852Z AUTO 34015KT 10SM CLR M08/M14 A3047 RMK AO2 SLP317 T10781144
                 51014 =
2015-03-06 02:52 METAR KNHK 060752Z AUTO 33015KT 10SM CLR M07/M13 A3046 RMK AO2 SLP314 T10721128
                 =
2015-03-06 00:52 METAR KNHK 060552Z AUTO 33012KT 10SM CLR M06/M11 A3043 RMK AO2 SLP304 60000
                 T10611106 11033 21061 51009 =
2015-03-05 23:52 METAR KNHK 060452Z AUTO 34014KT 10SM OVC110 M05/M10 A3042 RMK AO2 SLP301
                 T10501100 400611050 =
2015-03-05 22:52 METAR KNHK 060352Z AUTO 34015KT 10SM OVC095 M04/M08 A3041 RMK AO2 UPE14B23E33
                 SLP299 P0000 T10441078 =
2015-03-05 22:44 METAR KNHK 060344Z AUTO 35013KT 10SM FEW014 FEW021 OVC095 M04/M08 A3041 RMK AO2
                 UPE14B23E33 P0000 T10441078 
2015-03-05 22:14 METAR KNHK 060314Z AUTO 34010KT 10SM FEW016 BKN024 OVC090 M04/M07 A3041 RMK AO2
                 UPE14 P0000 T10441072 =
2015-03-05 21:52 METAR KNHK 060252Z AUTO 34013KT 10SM UP OVC090 M04/M08 A3040 RMK AO2 UPB45SNE45
                 PRESRR SLP295 P0000 60000 T10441078 53036 =
2015-03-05 21:34 METAR KNHK 060234Z AUTO 35010KT 6SM -SN SCT029 OVC090 M04/M07 A3038 RMK AO2
                 P0000 T10441072 =
2015-03-05 21:24 METAR KNHK 060224Z AUTO 35010KT 4SM -SN BKN029 OVC090 M04/M07 A3038 RMK AO2
                 P0000 T10441072 =
2015-03-05 21:12 METAR KNHK 060212Z AUTO 36015KT 2SM -SN FEW011 OVC029 M04/M07 A3037 RMK AO2
                 P0000 T10441072 =

Support USWX by starting your Amazon purchase here.